sensor_id;sensor_type;location;lat;lon;timestamp;P1;durP1;ratioP1;P2;durP2;ratioP2
4569;SDS011;2297;51.442;6.996;2024-01-16T00:02:13;12.85;;;5.65;;
4569;SDS011;2297;51.442;6.996;2024-01-16T00:04:40;11.63;;;5.40;;
4569;SDS011;2297;51.442;6.996;2024-01-16T00:07:06;15.60;;;5.53;;
4569;SDS011;2297;51.442;6.996;2024-01-16T00:09:33;10.85;;;5.22;;
4569;SDS011;2297;51.442;6.996;2024-01-16T00:12:00;9.52;;;5.20;;
4569;SDS011;2297;51.442;6.996;2024-01-16T00:14:28;12.20;;;5.82;;
4569;SDS011;2297;51.442;6.996;2024-01-16T00:16:54;11.30;;;5.45;;
4569;SDS011;2297;51.442;6.996;2024-01-16T00:19:21;9.40;;;5.07;;
4569;SDS011;2297;51.442;6.996;2024-01-16T00:21:47;11.18;;;5.55;;
4569;SDS011;2297;51.442;6.996;2024-01-16T00:24:15;15.27;;;5.10;;
4569;SDS011;2297;51.442;6.996;2024-01-16T00:26:42;10.40;;;4.78;;
4569;SDS011;2297;51.442;6.996;2024-01-16T00:29:09;10.93;;;4.93;;
4569;SDS011;2297;51.442;6.996;2024-01-16T00:31:38;11.45;;;4.95;;
4569;SDS011;2297;51.442;6.996;2024-01-16T00:34:05;9.05;;;4.93;;
4569;SDS011;2297;51.442;6.996;2024-01-16T00:36:32;10.27;;;5.15;;
4569;SDS011;2297;51.442;6.996;2024-01-16T00:38:59;10.20;;;5.32;;
4569;SDS011;2297;51.442;6.996;2024-01-16T00:41:27;12.00;;;4.82;;
4569;SDS011;2297;51.442;6.996;2024-01-16T00:43:54;13.40;;;4.78;;
4569;SDS011;2297;51.442;6.996;2024-01-16T00:46:21;11.98;;;4.40;;
4569;SDS011;2297;51.442;6.996;2024-01-16T00:48:49;13.18;;;5.00;;
4569;SDS011;2297;51.442;6.996;2024-01-16T00:51:16;9.55;;;5.15;;
4569;SDS011;2297;51.442;6.996;2024-01-16T00:53:42;8.57;;;4.53;;
4569;SDS011;2297;51.442;6.996;2024-01-16T00:56:10;11.13;;;5.10;;
4569;SDS011;2297;51.442;6.996;2024-01-16T00:58:37;11.20;;;5.00;;
4569;SDS011;2297;51.442;6.996;2024-01-16T01:01:04;8.77;;;4.70;;
4569;SDS011;2297;51.442;6.996;2024-01-16T01:03:30;7.43;;;4.03;;
4569;SDS011;2297;51.442;6.996;2024-01-16T01:05:59;9.98;;;4.97;;
4569;SDS011;2297;51.442;6.996;2024-01-16T01:08:26;9.40;;;4.20;;
4569;SDS011;2297;51.442;6.996;2024-01-16T01:10:53;11.02;;;4.68;;
4569;SDS011;2297;51.442;6.996;2024-01-16T01:13:19;7.03;;;4.05;;
4569;SDS011;2297;51.442;6.996;2024-01-16T01:15:46;10.77;;;4.05;;
4569;SDS011;2297;51.442;6.996;2024-01-16T01:18:13;6.85;;;4.00;;
4569;SDS011;2297;51.442;6.996;2024-01-16T01:20:39;6.68;;;4.00;;
4569;SDS011;2297;51.442;6.996;2024-01-16T01:23:08;7.22;;;4.00;;
4569;SDS011;2297;51.442;6.996;2024-01-16T01:25:34;6.20;;;4.00;;
4569;SDS011;2297;51.442;6.996;2024-01-16T01:28:01;8.63;;;4.30;;
4569;SDS011;2297;51.442;6.996;2024-01-16T01:30:27;7.88;;;4.18;;
4569;SDS011;2297;51.442;6.996;2024-01-16T01:32:54;7.63;;;3.92;;
4569;SDS011;2297;51.442;6.996;2024-01-16T01:35:21;9.70;;;3.92;;
4569;SDS011;2297;51.442;6.996;2024-01-16T01:37:47;9.50;;;4.30;;
4569;SDS011;2297;51.442;6.996;2024-01-16T01:40:15;13.80;;;4.88;;
4569;SDS011;2297;51.442;6.996;2024-01-16T01:42:42;8.82;;;4.30;;
4569;SDS011;2297;51.442;6.996;2024-01-16T01:45:09;12.45;;;4.57;;
4569;SDS011;2297;51.442;6.996;2024-01-16T01:47:35;14.77;;;4.70;;
4569;SDS011;2297;51.442;6.996;2024-01-16T01:50:02;7.85;;;3.65;;
4569;SDS011;2297;51.442;6.996;2024-01-16T01:52:30;9.02;;;4.88;;
4569;SDS011;2297;51.442;6.996;2024-01-16T01:54:58;8.23;;;4.03;;
4569;SDS011;2297;51.442;6.996;2024-01-16T01:57:26;10.85;;;4.10;;
4569;SDS011;2297;51.442;6.996;2024-01-16T02:03:15;16.40;;;4.85;;
4569;SDS011;2297;51.442;6.996;2024-01-16T02:05:43;9.68;;;5.03;;
4569;SDS011;2297;51.442;6.996;2024-01-16T02:08:10;8.18;;;4.40;;
4569;SDS011;2297;51.442;6.996;2024-01-16T02:10:37;9.80;;;4.60;;
4569;SDS011;2297;51.442;6.996;2024-01-16T02:13:09;9.48;;;4.53;;
4569;SDS011;2297;51.442;6.996;2024-01-16T02:15:36;9.75;;;4.55;;
4569;SDS011;2297;51.442;6.996;2024-01-16T02:18:06;11.77;;;5.65;;
4569;SDS011;2297;51.442;6.996;2024-01-16T02:20:33;16.35;;;5.43;;
4569;SDS011;2297;51.442;6.996;2024-01-16T02:22:59;10.00;;;4.93;;
4569;SDS011;2297;51.442;6.996;2024-01-16T02:25:30;10.85;;;4.90;;
4569;SDS011;2297;51.442;6.996;2024-01-16T02:28:09;8.07;;;4.57;;
4569;SDS011;2297;51.442;6.996;2024-01-16T02:30:36;9.52;;;5.18;;
4569;SDS011;2297;51.442;6.996;2024-01-16T02:33:03;13.65;;;5.07;;
4569;SDS011;2297;51.442;6.996;2024-01-16T02:35:30;9.27;;;5.10;;
4569;SDS011;2297;51.442;6.996;2024-01-16T02:37:56;11.75;;;5.32;;
4569;SDS011;2297;51.442;6.996;2024-01-16T02:40:23;12.57;;;5.72;;
4569;SDS011;2297;51.442;6.996;2024-01-16T02:42:51;15.05;;;5.70;;
4569;SDS011;2297;51.442;6.996;2024-01-16T02:45:18;11.15;;;5.50;;
4569;SDS011;2297;51.442;6.996;2024-01-16T02:47:44;11.30;;;5.90;;
4569;SDS011;2297;51.442;6.996;2024-01-16T02:50:11;14.40;;;7.30;;
4569;SDS011;2297;51.442;6.996;2024-01-16T02:52:38;13.63;;;7.55;;
4569;SDS011;2297;51.442;6.996;2024-01-16T02:55:05;13.20;;;6.88;;
4569;SDS011;2297;51.442;6.996;2024-01-16T02:57:32;11.55;;;6.65;;
4569;SDS011;2297;51.442;6.996;2024-01-16T03:00:01;14.45;;;7.00;;
4569;SDS011;2297;51.442;6.996;2024-01-16T03:02:28;13.00;;;6.97;;
4569;SDS011;2297;51.442;6.996;2024-01-16T03:04:55;16.75;;;7.93;;
4569;SDS011;2297;51.442;6.996;2024-01-16T03:07:21;16.98;;;8.52;;
4569;SDS011;2297;51.442;6.996;2024-01-16T03:09:48;18.17;;;8.52;;
4569;SDS011;2297;51.442;6.996;2024-01-16T03:12:14;20.77;;;9.30;;
4569;SDS011;2297;51.442;6.996;2024-01-16T03:14:41;20.40;;;9.35;;
4569;SDS011;2297;51.442;6.996;2024-01-16T03:17:09;19.90;;;9.93;;
4569;SDS011;2297;51.442;6.996;2024-01-16T03:19:36;19.17;;;10.48;;
4569;SDS011;2297;51.442;6.996;2024-01-16T03:22:03;22.38;;;10.73;;
4569;SDS011;2297;51.442;6.996;2024-01-16T03:24:29;21.92;;;10.00;;
4569;SDS011;2297;51.442;6.996;2024-01-16T03:26:56;19.92;;;11.73;;
4569;SDS011;2297;51.442;6.996;2024-01-16T03:29:23;21.58;;;10.95;;
4569;SDS011;2297;51.442;6.996;2024-01-16T03:31:48;22.80;;;11.52;;
4569;SDS011;2297;51.442;6.996;2024-01-16T03:34:16;25.38;;;12.27;;
4569;SDS011;2297;51.442;6.996;2024-01-16T03:36:43;24.73;;;11.55;;
4569;SDS011;2297;51.442;6.996;2024-01-16T03:39:09;23.20;;;12.00;;
4569;SDS011;2297;51.442;6.996;2024-01-16T03:41:37;24.15;;;13.00;;
4569;SDS011;2297;51.442;6.996;2024-01-16T03:44:03;21.88;;;11.02;;
4569;SDS011;2297;51.442;6.996;2024-01-16T03:46:30;21.73;;;10.73;;
4569;SDS011;2297;51.442;6.996;2024-01-16T03:48:57;22.85;;;11.43;;
4569;SDS011;2297;51.442;6.996;2024-01-16T03:51:25;20.75;;;11.32;;
4569;SDS011;2297;51.442;6.996;2024-01-16T03:53:51;23.08;;;10.93;;
4569;SDS011;2297;51.442;6.996;2024-01-16T03:56:18;19.45;;;10.48;;
4569;SDS011;2297;51.442;6.996;2024-01-16T03:58:44;21.20;;;11.18;;
4569;SDS011;2297;51.442;6.996;2024-01-16T04:01:11;21.15;;;10.60;;
4569;SDS011;2297;51.442;6.996;2024-01-16T04:03:38;25.10;;;11.55;;
4569;SDS011;2297;51.442;6.996;2024-01-16T04:06:13;23.30;;;11.35;;
4569;SDS011;2297;51.442;6.996;2024-01-16T04:08:42;18.88;;;9.63;;
4569;SDS011;2297;51.442;6.996;2024-01-16T04:11:11;22.02;;;9.30;;
4569;SDS011;2297;51.442;6.996;2024-01-16T04:13:38;19.70;;;9.50;;
4569;SDS011;2297;51.442;6.996;2024-01-16T04:16:05;19.73;;;9.55;;
4569;SDS011;2297;51.442;6.996;2024-01-16T04:18:34;22.45;;;9.63;;
4569;SDS011;2297;51.442;6.996;2024-01-16T04:21:02;26.85;;;9.30;;
4569;SDS011;2297;51.442;6.996;2024-01-16T04:23:29;18.77;;;9.80;;
4569;SDS011;2297;51.442;6.996;2024-01-16T04:25:57;18.55;;;9.70;;
4569;SDS011;2297;51.442;6.996;2024-01-16T04:28:24;18.85;;;9.68;;
4569;SDS011;2297;51.442;6.996;2024-01-16T04:30:51;17.20;;;9.15;;
4569;SDS011;2297;51.442;6.996;2024-01-16T04:33:17;18.05;;;8.85;;
4569;SDS011;2297;51.442;6.996;2024-01-16T04:35:44;18.08;;;8.85;;
4569;SDS011;2297;51.442;6.996;2024-01-16T04:38:11;23.80;;;8.85;;
4569;SDS011;2297;51.442;6.996;2024-01-16T04:40:37;20.55;;;8.75;;
4569;SDS011;2297;51.442;6.996;2024-01-16T04:43:05;14.20;;;7.90;;
4569;SDS011;2297;51.442;6.996;2024-01-16T04:45:32;15.38;;;7.47;;
4569;SDS011;2297;51.442;6.996;2024-01-16T04:47:58;14.00;;;7.43;;
4569;SDS011;2297;51.442;6.996;2024-01-16T04:53:47;17.33;;;7.28;;
4569;SDS011;2297;51.442;6.996;2024-01-16T04:56:14;15.45;;;7.18;;
4569;SDS011;2297;51.442;6.996;2024-01-16T04:58:41;14.77;;;7.28;;
4569;SDS011;2297;51.442;6.996;2024-01-16T05:01:08;12.63;;;6.13;;
4569;SDS011;2297;51.442;6.996;2024-01-16T05:03:35;19.98;;;6.65;;
4569;SDS011;2297;51.442;6.996;2024-01-16T05:06:02;11.35;;;5.80;;
4569;SDS011;2297;51.442;6.996;2024-01-16T05:08:41;14.18;;;6.18;;
4569;SDS011;2297;51.442;6.996;2024-01-16T05:11:07;12.15;;;5.82;;
4569;SDS011;2297;51.442;6.996;2024-01-16T05:13:34;9.73;;;5.10;;
4569;SDS011;2297;51.442;6.996;2024-01-16T05:16:02;11.80;;;5.60;;
4569;SDS011;2297;51.442;6.996;2024-01-16T05:18:29;20.17;;;6.00;;
4569;SDS011;2297;51.442;6.996;2024-01-16T05:20:57;10.40;;;5.57;;
4569;SDS011;2297;51.442;6.996;2024-01-16T05:23:24;12.85;;;5.82;;
4569;SDS011;2297;51.442;6.996;2024-01-16T05:25:50;12.90;;;5.63;;
4569;SDS011;2297;51.442;6.996;2024-01-16T05:28:17;12.23;;;5.40;;
4569;SDS011;2297;51.442;6.996;2024-01-16T05:30:44;10.75;;;5.38;;
4569;SDS011;2297;51.442;6.996;2024-01-16T05:33:12;9.13;;;5.13;;
4569;SDS011;2297;51.442;6.996;2024-01-16T05:35:38;9.75;;;4.88;;
4569;SDS011;2297;51.442;6.996;2024-01-16T05:38:05;11.77;;;5.28;;
4569;SDS011;2297;51.442;6.996;2024-01-16T05:40:32;10.55;;;4.57;;
4569;SDS011;2297;51.442;6.996;2024-01-16T05:42:57;9.43;;;5.25;;
4569;SDS011;2297;51.442;6.996;2024-01-16T05:45:24;9.70;;;4.60;;
4569;SDS011;2297;51.442;6.996;2024-01-16T05:47:50;10.40;;;4.75;;
4569;SDS011;2297;51.442;6.996;2024-01-16T05:50:18;11.20;;;5.75;;
4569;SDS011;2297;51.442;6.996;2024-01-16T05:52:45;11.90;;;5.55;;
4569;SDS011;2297;51.442;6.996;2024-01-16T05:55:11;11.40;;;5.18;;
4569;SDS011;2297;51.442;6.996;2024-01-16T05:57:38;11.98;;;6.05;;
4569;SDS011;2297;51.442;6.996;2024-01-16T06:00:05;13.05;;;6.80;;
4569;SDS011;2297;51.442;6.996;2024-01-16T06:02:33;12.23;;;5.72;;
4569;SDS011;2297;51.442;6.996;2024-01-16T06:04:59;12.52;;;6.72;;
4569;SDS011;2297;51.442;6.996;2024-01-16T06:07:29;11.85;;;6.47;;
4569;SDS011;2297;51.442;6.996;2024-01-16T06:09:55;14.10;;;7.35;;
4569;SDS011;2297;51.442;6.996;2024-01-16T06:12:22;16.02;;;8.77;;
4569;SDS011;2297;51.442;6.996;2024-01-16T06:14:49;24.02;;;10.35;;
4569;SDS011;2297;51.442;6.996;2024-01-16T06:17:15;19.77;;;9.60;;
4569;SDS011;2297;51.442;6.996;2024-01-16T06:19:42;19.05;;;9.82;;
4569;SDS011;2297;51.442;6.996;2024-01-16T06:22:08;21.70;;;11.10;;
4569;SDS011;2297;51.442;6.996;2024-01-16T06:24:37;23.65;;;12.30;;
4569;SDS011;2297;51.442;6.996;2024-01-16T06:27:04;22.45;;;11.73;;
4569;SDS011;2297;51.442;6.996;2024-01-16T06:29:32;26.63;;;12.77;;
4569;SDS011;2297;51.442;6.996;2024-01-16T06:31:58;25.85;;;12.90;;
4569;SDS011;2297;51.442;6.996;2024-01-16T06:34:25;26.40;;;13.50;;
4569;SDS011;2297;51.442;6.996;2024-01-16T06:36:52;29.98;;;13.88;;
4569;SDS011;2297;51.442;6.996;2024-01-16T06:39:19;26.52;;;14.85;;
4569;SDS011;2297;51.442;6.996;2024-01-16T06:41:47;26.52;;;13.43;;
4569;SDS011;2297;51.442;6.996;2024-01-16T06:44:13;28.30;;;12.27;;
4569;SDS011;2297;51.442;6.996;2024-01-16T06:46:40;26.60;;;12.02;;
4569;SDS011;2297;51.442;6.996;2024-01-16T06:49:06;21.63;;;11.15;;
4569;SDS011;2297;51.442;6.996;2024-01-16T06:51:33;25.20;;;11.98;;
4569;SDS011;2297;51.442;6.996;2024-01-16T06:54:00;24.05;;;10.95;;
4569;SDS011;2297;51.442;6.996;2024-01-16T06:56:26;20.65;;;10.63;;
4569;SDS011;2297;51.442;6.996;2024-01-16T06:58:54;23.98;;;11.15;;
4569;SDS011;2297;51.442;6.996;2024-01-16T07:01:21;21.60;;;10.60;;
4569;SDS011;2297;51.442;6.996;2024-01-16T07:03:48;22.20;;;10.32;;
4569;SDS011;2297;51.442;6.996;2024-01-16T07:06:15;17.30;;;8.98;;
4569;SDS011;2297;51.442;6.996;2024-01-16T07:08:41;18.10;;;8.80;;
4569;SDS011;2297;51.442;6.996;2024-01-16T07:11:08;17.02;;;8.80;;
4569;SDS011;2297;51.442;6.996;2024-01-16T07:13:38;19.58;;;9.20;;
4569;SDS011;2297;51.442;6.996;2024-01-16T07:16:06;17.75;;;7.78;;
4569;SDS011;2297;51.442;6.996;2024-01-16T07:18:35;20.05;;;8.13;;
4569;SDS011;2297;51.442;6.996;2024-01-16T07:21:01;18.90;;;7.30;;
4569;SDS011;2297;51.442;6.996;2024-01-16T07:23:29;12.95;;;7.30;;
4569;SDS011;2297;51.442;6.996;2024-01-16T07:25:55;17.23;;;7.45;;
4569;SDS011;2297;51.442;6.996;2024-01-16T07:28:22;15.10;;;6.32;;
4569;SDS011;2297;51.442;6.996;2024-01-16T07:30:49;13.60;;;6.43;;
4569;SDS011;2297;51.442;6.996;2024-01-16T07:33:17;18.17;;;6.45;;
4569;SDS011;2297;51.442;6.996;2024-01-16T07:35:43;14.13;;;5.70;;
4569;SDS011;2297;51.442;6.996;2024-01-16T07:38:12;15.82;;;5.82;;
4569;SDS011;2297;51.442;6.996;2024-01-16T07:40:39;15.25;;;5.55;;
4569;SDS011;2297;51.442;6.996;2024-01-16T07:43:06;15.95;;;5.53;;
4569;SDS011;2297;51.442;6.996;2024-01-16T07:45:32;12.70;;;5.90;;
4569;SDS011;2297;51.442;6.996;2024-01-16T07:47:59;15.23;;;6.38;;
4569;SDS011;2297;51.442;6.996;2024-01-16T07:50:36;14.27;;;5.10;;
4569;SDS011;2297;51.442;6.996;2024-01-16T07:53:03;14.68;;;5.75;;
4569;SDS011;2297;51.442;6.996;2024-01-16T07:55:29;12.85;;;5.68;;
4569;SDS011;2297;51.442;6.996;2024-01-16T07:57:56;14.52;;;6.10;;
4569;SDS011;2297;51.442;6.996;2024-01-16T08:00:22;11.70;;;4.70;;
4569;SDS011;2297;51.442;6.996;2024-01-16T08:02:49;12.68;;;4.80;;
4569;SDS011;2297;51.442;6.996;2024-01-16T08:05:15;32.22;;;5.95;;
4569;SDS011;2297;51.442;6.996;2024-01-16T08:07:43;15.73;;;4.88;;
4569;SDS011;2297;51.442;6.996;2024-01-16T08:10:10;9.05;;;4.55;;
4569;SDS011;2297;51.442;6.996;2024-01-16T08:12:37;12.60;;;5.13;;
4569;SDS011;2297;51.442;6.996;2024-01-16T08:15:03;12.07;;;5.72;;
4569;SDS011;2297;51.442;6.996;2024-01-16T08:17:32;9.55;;;4.60;;
4569;SDS011;2297;51.442;6.996;2024-01-16T08:19:59;13.75;;;4.70;;
4569;SDS011;2297;51.442;6.996;2024-01-16T08:22:25;10.70;;;4.65;;
4569;SDS011;2297;51.442;6.996;2024-01-16T08:24:53;11.05;;;4.28;;
4569;SDS011;2297;51.442;6.996;2024-01-16T08:27:20;15.80;;;4.60;;
4569;SDS011;2297;51.442;6.996;2024-01-16T08:29:47;9.52;;;3.90;;
4569;SDS011;2297;51.442;6.996;2024-01-16T08:32:15;13.85;;;4.45;;
4569;SDS011;2297;51.442;6.996;2024-01-16T08:34:41;11.20;;;3.95;;
4569;SDS011;2297;51.442;6.996;2024-01-16T08:37:08;8.35;;;4.03;;
4569;SDS011;2297;51.442;6.996;2024-01-16T08:39:34;10.38;;;3.80;;
4569;SDS011;2297;51.442;6.996;2024-01-16T08:42:03;8.45;;;4.13;;
4569;SDS011;2297;51.442;6.996;2024-01-16T08:44:29;14.82;;;3.85;;
4569;SDS011;2297;51.442;6.996;2024-01-16T08:46:56;11.95;;;4.15;;
4569;SDS011;2297;51.442;6.996;2024-01-16T08:49:24;11.95;;;3.95;;
4569;SDS011;2297;51.442;6.996;2024-01-16T08:51:51;8.25;;;3.75;;
4569;SDS011;2297;51.442;6.996;2024-01-16T08:54:17;11.55;;;3.83;;
4569;SDS011;2297;51.442;6.996;2024-01-16T08:56:44;8.95;;;3.60;;
4569;SDS011;2297;51.442;6.996;2024-01-16T08:59:25;15.30;;;4.03;;
4569;SDS011;2297;51.442;6.996;2024-01-16T09:01:51;10.43;;;3.65;;
4569;SDS011;2297;51.442;6.996;2024-01-16T09:04:18;11.45;;;3.85;;
4569;SDS011;2297;51.442;6.996;2024-01-16T09:06:44;12.95;;;3.45;;
4569;SDS011;2297;51.442;6.996;2024-01-16T09:09:11;10.05;;;3.40;;
4569;SDS011;2297;51.442;6.996;2024-01-16T09:11:38;9.73;;;3.30;;
4569;SDS011;2297;51.442;6.996;2024-01-16T09:17:28;9.68;;;3.92;;
4569;SDS011;2297;51.442;6.996;2024-01-16T09:19:54;11.73;;;3.70;;
4569;SDS011;2297;51.442;6.996;2024-01-16T09:22:21;10.93;;;3.42;;
4569;SDS011;2297;51.442;6.996;2024-01-16T09:24:48;8.13;;;3.40;;
4569;SDS011;2297;51.442;6.996;2024-01-16T09:27:14;14.98;;;3.88;;
4569;SDS011;2297;51.442;6.996;2024-01-16T09:29:41;15.40;;;4.00;;
4569;SDS011;2297;51.442;6.996;2024-01-16T09:32:08;7.63;;;3.25;;
4569;SDS011;2297;51.442;6.996;2024-01-16T09:34:36;8.00;;;3.30;;
4569;SDS011;2297;51.442;6.996;2024-01-16T09:37:03;10.85;;;3.60;;
4569;SDS011;2297;51.442;6.996;2024-01-16T09:39:30;12.40;;;3.22;;
4569;SDS011;2297;51.442;6.996;2024-01-16T09:41:57;11.70;;;4.40;;
4569;SDS011;2297;51.442;6.996;2024-01-16T09:44:26;7.70;;;3.88;;
4569;SDS011;2297;51.442;6.996;2024-01-16T09:46:53;15.85;;;4.05;;
4569;SDS011;2297;51.442;6.996;2024-01-16T09:49:22;11.23;;;3.67;;
4569;SDS011;2297;51.442;6.996;2024-01-16T09:51:50;7.13;;;3.30;;
4569;SDS011;2297;51.442;6.996;2024-01-16T09:54:17;11.52;;;3.78;;
4569;SDS011;2297;51.442;6.996;2024-01-16T09:56:44;8.95;;;3.60;;
4569;SDS011;2297;51.442;6.996;2024-01-16T09:59:15;7.18;;;3.30;;
4569;SDS011;2297;51.442;6.996;2024-01-16T10:01:43;8.90;;;3.17;;
4569;SDS011;2297;51.442;6.996;2024-01-16T10:04:11;8.68;;;3.65;;
4569;SDS011;2297;51.442;6.996;2024-01-16T10:06:38;9.10;;;3.75;;
4569;SDS011;2297;51.442;6.996;2024-01-16T10:09:07;11.73;;;3.97;;
4569;SDS011;2297;51.442;6.996;2024-01-16T10:11:37;10.07;;;3.80;;
4569;SDS011;2297;51.442;6.996;2024-01-16T10:14:04;9.32;;;3.42;;
4569;SDS011;2297;51.442;6.996;2024-01-16T10:19:28;10.32;;;4.53;;
4569;SDS011;2297;51.442;6.996;2024-01-16T10:22:00;9.50;;;3.65;;
4569;SDS011;2297;51.442;6.996;2024-01-16T10:24:29;15.23;;;3.97;;
4569;SDS011;2297;51.442;6.996;2024-01-16T10:26:59;7.05;;;3.60;;
4569;SDS011;2297;51.442;6.996;2024-01-16T10:29:28;11.02;;;3.80;;
4569;SDS011;2297;51.442;6.996;2024-01-16T10:31:55;9.75;;;4.10;;
4569;SDS011;2297;51.442;6.996;2024-01-16T10:34:21;10.68;;;3.35;;
4569;SDS011;2297;51.442;6.996;2024-01-16T10:36:49;11.85;;;4.57;;
4569;SDS011;2297;51.442;6.996;2024-01-16T10:39:16;12.63;;;4.15;;
4569;SDS011;2297;51.442;6.996;2024-01-16T10:41:50;14.57;;;3.95;;
4569;SDS011;2297;51.442;6.996;2024-01-16T10:44:20;11.65;;;4.18;;
4569;SDS011;2297;51.442;6.996;2024-01-16T10:46:47;12.38;;;4.18;;
4569;SDS011;2297;51.442;6.996;2024-01-16T10:49:13;16.85;;;4.05;;
4569;SDS011;2297;51.442;6.996;2024-01-16T10:51:41;10.07;;;3.83;;
4569;SDS011;2297;51.442;6.996;2024-01-16T10:54:11;8.73;;;3.83;;
4569;SDS011;2297;51.442;6.996;2024-01-16T10:56:39;11.57;;;4.53;;
4569;SDS011;2297;51.442;6.996;2024-01-16T10:59:15;14.05;;;4.45;;
4569;SDS011;2297;51.442;6.996;2024-01-16T11:01:46;11.82;;;3.88;;
4569;SDS011;2297;51.442;6.996;2024-01-16T11:04:16;13.10;;;4.15;;
4569;SDS011;2297;51.442;6.996;2024-01-16T11:06:44;12.73;;;3.92;;
4569;SDS011;2297;51.442;6.996;2024-01-16T11:09:12;10.30;;;4.18;;
4569;SDS011;2297;51.442;6.996;2024-01-16T11:11:40;8.80;;;4.10;;
4569;SDS011;2297;51.442;6.996;2024-01-16T11:14:08;12.98;;;4.65;;
4569;SDS011;2297;51.442;6.996;2024-01-16T11:16:38;10.15;;;4.13;;
4569;SDS011;2297;51.442;6.996;2024-01-16T11:19:07;8.68;;;4.63;;
4569;SDS011;2297;51.442;6.996;2024-01-16T11:21:35;13.98;;;4.70;;
4569;SDS011;2297;51.442;6.996;2024-01-16T11:24:03;16.15;;;4.78;;
4569;SDS011;2297;51.442;6.996;2024-01-16T11:26:30;13.10;;;4.68;;
4569;SDS011;2297;51.442;6.996;2024-01-16T11:28:58;11.77;;;4.53;;
4569;SDS011;2297;51.442;6.996;2024-01-16T11:31:29;11.50;;;4.65;;
4569;SDS011;2297;51.442;6.996;2024-01-16T11:33:59;18.35;;;4.35;;
4569;SDS011;2297;51.442;6.996;2024-01-16T11:36:43;14.40;;;4.85;;
4569;SDS011;2297;51.442;6.996;2024-01-16T11:39:18;10.80;;;4.60;;
4569;SDS011;2297;51.442;6.996;2024-01-16T11:41:52;12.57;;;4.57;;
4569;SDS011;2297;51.442;6.996;2024-01-16T11:47:16;11.07;;;4.30;;
4569;SDS011;2297;51.442;6.996;2024-01-16T11:49:44;12.52;;;4.38;;
4569;SDS011;2297;51.442;6.996;2024-01-16T11:52:11;10.40;;;4.93;;
4569;SDS011;2297;51.442;6.996;2024-01-16T11:54:39;12.18;;;5.20;;
4569;SDS011;2297;51.442;6.996;2024-01-16T11:57:11;10.18;;;4.63;;
4569;SDS011;2297;51.442;6.996;2024-01-16T11:59:57;10.48;;;4.28;;
4569;SDS011;2297;51.442;6.996;2024-01-16T12:02:26;12.57;;;4.60;;
4569;SDS011;2297;51.442;6.996;2024-01-16T12:05:03;12.18;;;4.88;;
4569;SDS011;2297;51.442;6.996;2024-01-16T12:07:41;12.65;;;4.10;;
4569;SDS011;2297;51.442;6.996;2024-01-16T12:10:09;9.95;;;4.15;;
4569;SDS011;2297;51.442;6.996;2024-01-16T12:12:35;9.25;;;4.60;;
4569;SDS011;2297;51.442;6.996;2024-01-16T12:15:02;8.88;;;4.10;;
4569;SDS011;2297;51.442;6.996;2024-01-16T12:17:29;11.05;;;4.68;;
4569;SDS011;2297;51.442;6.996;2024-01-16T12:19:56;10.52;;;4.40;;
4569;SDS011;2297;51.442;6.996;2024-01-16T12:22:24;9.25;;;4.32;;
4569;SDS011;2297;51.442;6.996;2024-01-16T12:24:55;11.90;;;4.65;;
4569;SDS011;2297;51.442;6.996;2024-01-16T12:27:22;9.63;;;4.57;;
4569;SDS011;2297;51.442;6.996;2024-01-16T12:29:49;15.73;;;4.65;;
4569;SDS011;2297;51.442;6.996;2024-01-16T12:32:17;12.90;;;4.45;;
4569;SDS011;2297;51.442;6.996;2024-01-16T12:34:44;11.05;;;3.92;;
4569;SDS011;2297;51.442;6.996;2024-01-16T12:37:11;11.40;;;5.18;;
4569;SDS011;2297;51.442;6.996;2024-01-16T12:39:40;9.48;;;4.20;;
4569;SDS011;2297;51.442;6.996;2024-01-16T12:42:08;9.90;;;4.00;;
4569;SDS011;2297;51.442;6.996;2024-01-16T12:44:36;13.27;;;4.45;;
4569;SDS011;2297;51.442;6.996;2024-01-16T12:47:03;14.45;;;4.47;;
4569;SDS011;2297;51.442;6.996;2024-01-16T12:49:31;11.00;;;4.50;;
4569;SDS011;2297;51.442;6.996;2024-01-16T12:52:17;9.20;;;4.35;;
4569;SDS011;2297;51.442;6.996;2024-01-16T12:54:47;11.82;;;4.50;;
4569;SDS011;2297;51.442;6.996;2024-01-16T12:57:18;9.50;;;4.45;;
4569;SDS011;2297;51.442;6.996;2024-01-16T12:59:46;10.30;;;4.40;;
4569;SDS011;2297;51.442;6.996;2024-01-16T13:02:19;10.73;;;4.18;;
4569;SDS011;2297;51.442;6.996;2024-01-16T13:04:47;12.65;;;4.30;;
4569;SDS011;2297;51.442;6.996;2024-01-16T13:07:15;10.20;;;4.47;;
4569;SDS011;2297;51.442;6.996;2024-01-16T13:12:41;13.13;;;4.95;;
4569;SDS011;2297;51.442;6.996;2024-01-16T13:15:07;16.65;;;4.80;;
4569;SDS011;2297;51.442;6.996;2024-01-16T13:17:36;10.20;;;4.50;;
4569;SDS011;2297;51.442;6.996;2024-01-16T13:20:03;11.52;;;5.03;;
4569;SDS011;2297;51.442;6.996;2024-01-16T13:22:32;11.98;;;5.18;;
4569;SDS011;2297;51.442;6.996;2024-01-16T13:24:59;11.05;;;4.40;;
4569;SDS011;2297;51.442;6.996;2024-01-16T13:27:27;10.90;;;4.47;;
4569;SDS011;2297;51.442;6.996;2024-01-16T13:29:55;18.35;;;5.53;;
4569;SDS011;2297;51.442;6.996;2024-01-16T13:32:22;10.43;;;4.90;;
4569;SDS011;2297;51.442;6.996;2024-01-16T13:34:48;9.70;;;4.30;;
4569;SDS011;2297;51.442;6.996;2024-01-16T13:37:17;12.65;;;4.68;;
4569;SDS011;2297;51.442;6.996;2024-01-16T13:39:46;8.70;;;4.72;;
4569;SDS011;2297;51.442;6.996;2024-01-16T13:42:13;10.52;;;4.93;;
4569;SDS011;2297;51.442;6.996;2024-01-16T13:44:45;9.40;;;4.93;;
4569;SDS011;2297;51.442;6.996;2024-01-16T13:47:13;11.32;;;4.70;;
4569;SDS011;2297;51.442;6.996;2024-01-16T13:49:41;11.25;;;4.78;;
4569;SDS011;2297;51.442;6.996;2024-01-16T13:52:08;12.43;;;4.97;;
4569;SDS011;2297;51.442;6.996;2024-01-16T13:54:38;12.77;;;4.60;;
4569;SDS011;2297;51.442;6.996;2024-01-16T13:57:05;10.32;;;4.75;;
4569;SDS011;2297;51.442;6.996;2024-01-16T13:59:32;10.60;;;4.70;;
4569;SDS011;2297;51.442;6.996;2024-01-16T14:02:01;11.40;;;4.97;;
4569;SDS011;2297;51.442;6.996;2024-01-16T14:04:28;11.40;;;5.15;;
4569;SDS011;2297;51.442;6.996;2024-01-16T14:06:55;16.40;;;4.95;;
4569;SDS011;2297;51.442;6.996;2024-01-16T14:09:21;8.45;;;4.70;;
4569;SDS011;2297;51.442;6.996;2024-01-16T14:11:49;11.30;;;4.75;;
4569;SDS011;2297;51.442;6.996;2024-01-16T14:14:15;11.23;;;4.95;;
4569;SDS011;2297;51.442;6.996;2024-01-16T14:16:42;11.45;;;5.15;;
4569;SDS011;2297;51.442;6.996;2024-01-16T14:19:10;16.13;;;4.95;;
4569;SDS011;2297;51.442;6.996;2024-01-16T14:21:36;17.13;;;5.40;;
4569;SDS011;2297;51.442;6.996;2024-01-16T14:24:03;13.77;;;4.22;;
4569;SDS011;2297;51.442;6.996;2024-01-16T14:26:31;12.65;;;5.35;;
4569;SDS011;2297;51.442;6.996;2024-01-16T14:28:59;13.32;;;4.70;;
4569;SDS011;2297;51.442;6.996;2024-01-16T14:31:30;17.58;;;5.20;;
4569;SDS011;2297;51.442;6.996;2024-01-16T14:33:57;10.50;;;4.88;;
4569;SDS011;2297;51.442;6.996;2024-01-16T14:36:25;12.23;;;5.07;;
4569;SDS011;2297;51.442;6.996;2024-01-16T14:38:52;12.45;;;5.78;;
4569;SDS011;2297;51.442;6.996;2024-01-16T14:41:18;10.82;;;5.53;;
4569;SDS011;2297;51.442;6.996;2024-01-16T14:43:46;14.13;;;5.40;;
4569;SDS011;2297;51.442;6.996;2024-01-16T14:46:13;10.30;;;5.93;;
4569;SDS011;2297;51.442;6.996;2024-01-16T14:48:43;10.00;;;4.68;;
4569;SDS011;2297;51.442;6.996;2024-01-16T14:51:10;14.50;;;5.30;;
4569;SDS011;2297;51.442;6.996;2024-01-16T14:53:38;13.80;;;5.35;;
4569;SDS011;2297;51.442;6.996;2024-01-16T14:56:05;12.60;;;5.13;;
4569;SDS011;2297;51.442;6.996;2024-01-16T14:58:32;11.57;;;5.55;;
4569;SDS011;2297;51.442;6.996;2024-01-16T15:00:58;10.70;;;4.65;;
4569;SDS011;2297;51.442;6.996;2024-01-16T15:03:25;11.07;;;4.93;;
4569;SDS011;2297;51.442;6.996;2024-01-16T15:05:52;9.02;;;4.70;;
4569;SDS011;2297;51.442;6.996;2024-01-16T15:08:20;11.85;;;5.05;;
4569;SDS011;2297;51.442;6.996;2024-01-16T15:10:48;10.60;;;4.80;;
4569;SDS011;2297;51.442;6.996;2024-01-16T15:13:14;11.70;;;5.20;;
4569;SDS011;2297;51.442;6.996;2024-01-16T15:15:41;11.52;;;5.25;;
4569;SDS011;2297;51.442;6.996;2024-01-16T15:18:08;8.63;;;4.63;;
4569;SDS011;2297;51.442;6.996;2024-01-16T15:20:35;9.65;;;5.03;;
4569;SDS011;2297;51.442;6.996;2024-01-16T15:23:01;10.02;;;4.75;;
4569;SDS011;2297;51.442;6.996;2024-01-16T15:25:28;11.55;;;4.88;;